Time;durP1;ratioP1;P1;durP2;ratioP2;P2;SDS_P1;SDS_P2;PMS_P1;PMS_P2;Temp;Humidity;BMP_temperature;BMP_pressure;BME280_temperature;BME280_humidity;BME280_pressure;Samples;Min_cycle;Max_cycle;Signal;HPM_P1;HPM_P2
2023/08/03 00:01:21;;;;;;;11.33;2.50;;;;;;;;;;5093182;28;20481;-63
2023/08/03 00:03:47;;;;;;;6.33;2.50;;;;;;;;;;5093147;28;20492;-62
2023/08/03 00:06:13;;;;;;;8.37;2.27;;;;;;;;;;5091669;28;20777;-62
2023/08/03 00:08:41;;;;;;;11.63;2.63;;;;;;;;;;5092635;28;20448;-62
2023/08/03 00:11:10;;;;;;;6.47;2.50;;;;;;;;;;5092102;28;20888;-62
2023/08/03 00:13:36;;;;;;;8.97;2.87;;;;;;;;;;5092510;28;20434;-62
2023/08/03 00:16:01;;;;;;;7.00;2.30;;;;;;;;;;5092598;28;20470;-62
2023/08/03 00:18:27;;;;;;;7.53;2.90;;;;;;;;;;5092691;28;20437;-62
2023/08/03 00:20:56;;;;;;;4.57;2.70;;;;;;;;;;5092796;28;20463;-62
2023/08/03 00:23:22;;;;;;;9.57;2.37;;;;;;;;;;5092781;28;20470;-62
2023/08/03 00:25:50;;;;;;;11.30;2.93;;;;;;;;;;5092718;28;20443;-62
2023/08/03 00:28:18;;;;;;;10.60;3.10;;;;;;;;;;5092608;28;20442;-62
2023/08/03 00:30:44;;;;;;;12.37;3.07;;;;;;;;;;5092208;28;20422;-62
2023/08/03 00:33:10;;;;;;;13.77;2.90;;;;;;;;;;5091268;28;20423;-62
2023/08/03 00:35:36;;;;;;;10.60;3.13;;;;;;;;;;5092848;28;20445;-61
2023/08/03 00:38:04;;;;;;;9.27;2.60;;;;;;;;;;5092751;28;20503;-62
2023/08/03 00:40:30;;;;;;;9.43;2.97;;;;;;;;;;5092783;28;20430;-62
2023/08/03 00:42:57;;;;;;;7.30;2.67;;;;;;;;;;5092818;28;20405;-62
2023/08/03 00:45:28;;;;;;;6.37;2.73;;;;;;;;;;5092772;28;20551;-62
2023/08/03 00:47:56;;;;;;;20.33;2.77;;;;;;;;;;5092064;28;20438;-62
2023/08/03 00:50:22;;;;;;;15.30;2.77;;;;;;;;;;5092188;28;20437;-62
2023/08/03 00:52:48;;;;;;;8.53;2.03;;;;;;;;;;5092494;28;20410;-62
2023/08/03 00:55:14;;;;;;;11.67;2.80;;;;;;;;;;5092032;28;20479;-62
2023/08/03 00:57:41;;;;;;;8.77;3.00;;;;;;;;;;5092226;28;20438;-62
2023/08/03 01:00:07;;;;;;;7.93;2.60;;;;;;;;;;5090867;28;20417;-62
2023/08/03 01:02:33;;;;;;;9.93;2.70;;;;;;;;;;5092074;28;20415;-62
2023/08/03 01:04:59;;;;;;;14.00;3.40;;;;;;;;;;5092157;28;20825;-61
2023/08/03 01:07:26;;;;;;;7.57;2.20;;;;;;;;;;5090725;28;20422;-62
2023/08/03 01:09:54;;;;;;;5.87;2.53;;;;;;;;;;5092020;28;20409;-62
2023/08/03 01:12:20;;;;;;;6.20;2.70;;;;;;;;;;5091844;28;20996;-62
2023/08/03 01:14:46;;;;;;;11.50;2.97;;;;;;;;;;5091922;28;20560;-62
2023/08/03 01:17:12;;;;;;;9.97;3.43;;;;;;;;;;5092018;28;20410;-62
2023/08/03 01:19:41;;;;;;;8.70;2.30;;;;;;;;;;5091855;28;20443;-62
2023/08/03 01:22:09;;;;;;;12.70;2.57;;;;;;;;;;5091889;28;20430;-62
2023/08/03 01:24:37;;;;;;;14.50;3.60;;;;;;;;;;5091941;28;20415;-62
2023/08/03 01:27:04;;;;;;;9.37;2.50;;;;;;;;;;5092035;28;20497;-62
2023/08/03 01:29:30;;;;;;;12.23;2.70;;;;;;;;;;5091730;28;20438;-62
2023/08/03 01:31:58;;;;;;;12.73;2.67;;;;;;;;;;5092040;28;20416;-62
2023/08/03 01:34:29;;;;;;;6.47;2.90;;;;;;;;;;5091912;28;20475;-62
2023/08/03 01:36:56;;;;;;;8.27;2.93;;;;;;;;;;5091722;28;20412;-62
2023/08/03 01:39:27;;;;;;;11.23;2.77;;;;;;;;;;5091644;28;20434;-62
2023/08/03 01:41:53;;;;;;;11.00;2.57;;;;;;;;;;5091761;28;20480;-62
2023/08/03 01:44:24;;;;;;;10.87;2.60;;;;;;;;;;5092637;28;20982;-62
2023/08/03 01:46:53;;;;;;;11.33;2.33;;;;;;;;;;5095485;28;20436;-61
2023/08/03 01:49:21;;;;;;;8.47;2.23;;;;;;;;;;5095600;28;20434;-62
2023/08/03 01:51:47;;;;;;;6.63;2.37;;;;;;;;;;5095414;28;20806;-62
2023/08/03 01:54:13;;;;;;;11.60;2.80;;;;;;;;;;5095326;28;20960;-62
2023/08/03 01:56:42;;;;;;;13.30;3.10;;;;;;;;;;5093949;28;20492;-62
2023/08/03 01:59:08;;;;;;;16.07;3.17;;;;;;;;;;5093943;28;20451;-61
2023/08/03 02:01:34;;;;;;;7.87;2.20;;;;;;;;;;5095099;28;20498;-61
2023/08/03 02:04:00;;;;;;;11.23;2.80;;;;;;;;;;5095157;28;20449;-62
2023/08/03 02:06:26;;;;;;;8.80;3.20;;;;;;;;;;5095003;28;20467;-62
2023/08/03 02:08:52;;;;;;;7.50;2.23;;;;;;;;;;5095026;28;20420;-62
2023/08/03 02:11:20;;;;;;;5.90;2.53;;;;;;;;;;5094886;28;20435;-61
2023/08/03 02:13:46;;;;;;;6.10;2.10;;;;;;;;;;5094823;28;20465;-61
2023/08/03 02:16:12;;;;;;;5.40;2.20;;;;;;;;;;5095041;28;20921;-61
2023/08/03 02:18:41;;;;;;;11.67;2.50;;;;;;;;;;5094871;28;20439;-61
2023/08/03 02:21:07;;;;;;;12.67;2.43;;;;;;;;;;5093534;28;20783;-61
2023/08/03 02:23:34;;;;;;;8.00;2.00;;;;;;;;;;5094457;28;20408;-61
2023/08/03 02:26:03;;;;;;;5.63;1.93;;;;;;;;;;5095013;28;20425;-61
2023/08/03 02:28:32;;;;;;;10.10;2.30;;;;;;;;;;5094836;28;20427;-61
2023/08/03 02:31:03;;;;;;;7.27;2.10;;;;;;;;;;5094623;28;20445;-61
2023/08/03 02:33:33;;;;;;;16.03;2.10;;;;;;;;;;5094653;28;20432;-61
2023/08/03 02:35:59;;;;;;;9.47;2.10;;;;;;;;;;5094569;28;20467;-61
2023/08/03 02:38:25;;;;;;;6.87;2.23;;;;;;;;;;5094467;28;20476;-60
2023/08/03 02:40:57;;;;;;;8.90;2.50;;;;;;;;;;5094240;28;20920;-60
2023/08/03 02:43:23;;;;;;;21.67;3.13;;;;;;;;;;5092527;28;20502;-61
2023/08/03 02:45:52;;;;;;;6.27;2.20;;;;;;;;;;5092276;28;20878;-60
2023/08/03 02:48:18;;;;;;;14.60;2.43;;;;;;;;;;5093936;28;20918;-61
2023/08/03 02:50:44;;;;;;;9.90;2.50;;;;;;;;;;5093821;28;20420;-60
2023/08/03 02:53:09;;;;;;;6.97;2.23;;;;;;;;;;5094251;28;20922;-60
2023/08/03 02:55:35;;;;;;;6.53;2.20;;;;;;;;;;5093714;28;20843;-61
2023/08/03 02:58:01;;;;;;;4.00;1.90;;;;;;;;;;5093746;28;20444;-61
2023/08/03 03:00:27;;;;;;;10.53;2.23;;;;;;;;;;5093885;28;20408;-60
2023/08/03 03:02:53;;;;;;;8.67;2.80;;;;;;;;;;5094051;28;20443;-61
2023/08/03 03:05:19;;;;;;;5.63;1.77;;;;;;;;;;5094051;28;20397;-60
2023/08/03 03:07:45;;;;;;;4.20;1.47;;;;;;;;;;5093730;28;20507;-60
2023/08/03 03:10:13;;;;;;;5.80;1.97;;;;;;;;;;5093691;28;20415;-61
2023/08/03 03:12:39;;;;;;;4.97;2.30;;;;;;;;;;5092949;28;20443;-59
2023/08/03 03:15:05;;;;;;;9.60;1.97;;;;;;;;;;5093606;28;20530;-59
2023/08/03 03:17:31;;;;;;;5.43;1.90;;;;;;;;;;5093458;28;20410;-59
2023/08/03 03:19:57;;;;;;;15.43;2.77;;;;;;;;;;5093431;28;20905;-59
2023/08/03 03:22:23;;;;;;;7.40;2.27;;;;;;;;;;5093425;28;20407;-59
2023/08/03 03:24:49;;;;;;;12.03;2.60;;;;;;;;;;5093371;28;20412;-59
2023/08/03 03:27:17;;;;;;;9.13;2.30;;;;;;;;;;5093431;28;20440;-59
2023/08/03 03:29:43;;;;;;;7.87;2.13;;;;;;;;;;5093478;28;20419;-59
2023/08/03 03:32:11;;;;;;;9.37;1.97;;;;;;;;;;5093378;28;20414;-59
2023/08/03 03:34:37;;;;;;;9.53;2.53;;;;;;;;;;5093290;28;21036;-59
2023/08/03 03:37:05;;;;;;;8.40;2.57;;;;;;;;;;5092949;28;20569;-59
2023/08/03 03:39:31;;;;;;;10.53;1.83;;;;;;;;;;5093323;28;20415;-59
2023/08/03 03:42:00;;;;;;;8.53;2.43;;;;;;;;;;5093154;28;20407;-59
2023/08/03 03:44:26;;;;;;;7.40;2.80;;;;;;;;;;5093339;28;20398;-59
2023/08/03 03:46:52;;;;;;;8.20;2.70;;;;;;;;;;5093106;28;20477;-59
2023/08/03 03:49:18;;;;;;;9.73;2.33;;;;;;;;;;5093017;28;20892;-59
2023/08/03 03:51:44;;;;;;;9.30;2.17;;;;;;;;;;5092948;28;20468;-59
2023/08/03 03:54:10;;;;;;;7.17;2.60;;;;;;;;;;5092784;28;20472;-59
2023/08/03 03:56:36;;;;;;;11.73;2.73;;;;;;;;;;5091485;28;20412;-59
2023/08/03 03:59:02;;;;;;;17.23;3.93;;;;;;;;;;5092795;28;20435;-59
2023/08/03 04:01:28;;;;;;;9.53;2.57;;;;;;;;;;5092704;28;20430;-59
2023/08/03 04:03:54;;;;;;;6.10;2.10;;;;;;;;;;5091143;28;20497;-59
2023/08/03 04:06:20;;;;;;;12.70;2.70;;;;;;;;;;5092799;28;20872;-59
2023/08/03 04:08:48;;;;;;;9.03;1.93;;;;;;;;;;5091798;28;20858;-59
2023/08/03 04:11:14;;;;;;;18.30;3.20;;;;;;;;;;5092654;28;20574;-59
2023/08/03 04:13:43;;;;;;;7.00;2.33;;;;;;;;;;5091779;28;20881;-59
2023/08/03 04:16:09;;;;;;;7.20;2.50;;;;;;;;;;5092523;28;20570;-59
2023/08/03 04:18:35;;;;;;;10.20;2.17;;;;;;;;;;5092425;28;20908;-59
2023/08/03 04:21:03;;;;;;;7.97;2.03;;;;;;;;;;5092554;28;20855;-59
2023/08/03 04:23:29;;;;;;;7.07;2.37;;;;;;;;;;5092371;28;20411;-59
2023/08/03 04:25:55;;;;;;;10.23;1.60;;;;;;;;;;5092432;28;20426;-59
2023/08/03 04:28:21;;;;;;;8.07;2.07;;;;;;;;;;5092465;28;20453;-59
2023/08/03 04:30:50;;;;;;;6.60;1.97;;;;;;;;;;5092492;28;20975;-59
2023/08/03 04:33:18;;;;;;;5.63;2.00;;;;;;;;;;5092471;28;20423;-58
2023/08/03 04:35:44;;;;;;;12.73;2.17;;;;;;;;;;5092502;28;20468;-59
2023/08/03 04:38:10;;;;;;;8.20;2.27;;;;;;;;;;5092211;28;20482;-59
2023/08/03 04:40:36;;;;;;;7.33;1.80;;;;;;;;;;5092520;28;20879;-59
2023/08/03 04:43:02;;;;;;;6.77;1.97;;;;;;;;;;5092144;28;20457;-59
2023/08/03 04:45:30;;;;;;;8.47;2.07;;;;;;;;;;5091638;28;20830;-59
2023/08/03 04:47:59;;;;;;;7.33;1.87;;;;;;;;;;5090863;28;20416;-59
2023/08/03 04:50:25;;;;;;;19.07;2.27;;;;;;;;;;5091434;28;20766;-60
2023/08/03 04:52:51;;;;;;;5.53;1.87;;;;;;;;;;5091271;28;20418;-59
2023/08/03 04:55:19;;;;;;;4.57;1.70;;;;;;;;;;5090937;28;20967;-60
2023/08/03 04:57:45;;;;;;;4.40;1.63;;;;;;;;;;5091928;28;20412;-60
2023/08/03 05:00:11;;;;;;;9.30;2.13;;;;;;;;;;5091986;28;20435;-59
2023/08/03 05:02:37;;;;;;;9.33;1.90;;;;;;;;;;5092531;28;20874;-59
2023/08/03 05:05:06;;;;;;;3.83;1.40;;;;;;;;;;5092486;28;20435;-60
2023/08/03 05:07:32;;;;;;;6.30;2.03;;;;;;;;;;5092492;28;20406;-60
2023/08/03 05:09:57;;;;;;;4.60;1.63;;;;;;;;;;5092519;28;20421;-59
2023/08/03 05:12:23;;;;;;;10.53;2.10;;;;;;;;;;5092385;28;20971;-59
2023/08/03 05:14:52;;;;;;;8.83;2.13;;;;;;;;;;5092037;28;20531;-60
2023/08/03 05:17:18;;;;;;;4.97;1.40;;;;;;;;;;5091782;28;20487;-60
2023/08/03 05:19:47;;;;;;;9.57;2.30;;;;;;;;;;5093557;28;20402;-60
2023/08/03 05:22:15;;;;;;;3.57;1.90;;;;;;;;;;5095829;28;20429;-60
2023/08/03 05:24:41;;;;;;;6.20;1.57;;;;;;;;;;5095910;28;20456;-60
2023/08/03 05:27:09;;;;;;;5.07;1.70;;;;;;;;;;5095529;28;20431;-59
2023/08/03 05:29:38;;;;;;;3.03;1.47;;;;;;;;;;5095758;28;20536;-60
2023/08/03 05:32:04;;;;;;;6.50;1.43;;;;;;;;;;5095621;28;20421;-60
2023/08/03 05:34:31;;;;;;;5.97;2.40;;;;;;;;;;5095775;28;20470;-60
2023/08/03 05:36:57;;;;;;;5.27;1.70;;;;;;;;;;5095444;28;20491;-60
2023/08/03 05:39:26;;;;;;;5.30;1.77;;;;;;;;;;5095392;28;20880;-59
2023/08/03 05:41:54;;;;;;;8.50;2.40;;;;;;;;;;5095327;28;20410;-60
2023/08/03 05:44:20;;;;;;;2.20;1.30;;;;;;;;;;5093833;28;20451;-60
2023/08/03 05:46:49;;;;;;;7.93;1.43;;;;;;;;;;5093881;28;20434;-60
2023/08/03 05:49:15;;;;;;;2.33;1.17;;;;;;;;;;5095326;28;20967;-60
2023/08/03 05:51:41;;;;;;;5.90;1.50;;;;;;;;;;5095162;28;20523;-60
2023/08/03 05:54:09;;;;;;;7.63;1.70;;;;;;;;;;5094779;28;20813;-60
2023/08/03 05:56:35;;;;;;;5.80;1.43;;;;;;;;;;5095095;28;20439;-60
2023/08/03 05:59:02;;;;;;;4.23;1.50;;;;;;;;;;5095220;28;20426;-60
2023/08/03 06:01:29;;;;;;;2.70;1.30;;;;;;;;;;5093724;28;20446;-61
2023/08/03 06:03:55;;;;;;;5.27;1.70;;;;;;;;;;5095051;28;20408;-60
2023/08/03 06:06:22;;;;;;;2.83;1.70;;;;;;;;;;5093703;28;20947;-60
2023/08/03 06:08:54;;;;;;;6.73;1.50;;;;;;;;;;5094824;28;20467;-60
2023/08/03 06:11:20;;;;;;;6.13;1.60;;;;;;;;;;5094870;28;20432;-60
2023/08/03 06:13:47;;;;;;;2.93;1.40;;;;;;;;;;5095046;28;20412;-60
2023/08/03 06:16:17;;;;;;;6.60;1.57;;;;;;;;;;5094957;28;20452;-60
2023/08/03 06:18:55;;;;;;;6.37;1.70;;;;;;;;;;5094731;28;20420;-61
2023/08/03 06:21:22;;;;;;;3.33;1.13;;;;;;;;;;5094924;28;20393;-61
2023/08/03 06:23:49;;;;;;;3.90;1.13;;;;;;;;;;5093056;28;20927;-60
2023/08/03 06:26:19;;;;;;;3.20;1.03;;;;;;;;;;5094829;28;20401;-60
2023/08/03 06:28:49;;;;;;;6.23;1.40;;;;;;;;;;5094180;28;20451;-61
2023/08/03 06:31:16;;;;;;;11.10;6.00;;;;;;;;;;5093371;28;20436;-60
2023/08/03 06:33:43;;;;;;;3.63;1.10;;;;;;;;;;5093812;28;20424;-60
2023/08/03 06:36:13;;;;;;;3.63;1.30;;;;;;;;;;5094266;28;20557;-61
2023/08/03 06:38:41;;;;;;;3.83;1.70;;;;;;;;;;5094032;28;20444;-61
2023/08/03 06:41:07;;;;;;;1.70;1.00;;;;;;;;;;5094390;28;20425;-61
2023/08/03 06:43:33;;;;;;;1.60;0.93;;;;;;;;;;5094049;28;20445;-61
2023/08/03 06:45:59;;;;;;;5.50;1.47;;;;;;;;;;5094343;28;20440;-62
2023/08/03 06:48:25;;;;;;;4.13;1.33;;;;;;;;;;5094151;28;20429;-61
2023/08/03 06:50:54;;;;;;;1.10;0.90;;;;;;;;;;5094101;28;20443;-61
2023/08/03 06:53:20;;;;;;;2.40;1.13;;;;;;;;;;5094061;28;20503;-61
2023/08/03 06:55:48;;;;;;;6.90;1.00;;;;;;;;;;5093744;28;20889;-61
2023/08/03 06:58:14;;;;;;;1.67;1.10;;;;;;;;;;5094147;28;20401;-61
2023/08/03 07:00:41;;;;;;;4.00;1.23;;;;;;;;;;5093889;28;20498;-61
2023/08/03 07:03:10;;;;;;;8.53;1.70;;;;;;;;;;5093918;28;20769;-61
2023/08/03 07:05:38;;;;;;;3.83;1.70;;;;;;;;;;5094044;28;20432;-61
2023/08/03 07:08:06;;;;;;;3.83;0.93;;;;;;;;;;5093967;28;20487;-61
2023/08/03 07:10:33;;;;;;;3.30;1.30;;;;;;;;;;5094056;28;20393;-61
2023/08/03 07:12:59;;;;;;;5.10;1.60;;;;;;;;;;5092389;28;20944;-61
2023/08/03 07:15:33;;;;;;;2.23;1.30;;;;;;;;;;5093407;28;20495;-61
2023/08/03 07:18:01;;;;;;;5.63;1.20;;;;;;;;;;5092282;28;20394;-61
2023/08/03 07:20:33;;;;;;;2.07;1.10;;;;;;;;;;5091258;28;20809;-61
2023/08/03 07:22:59;;;;;;;4.83;1.27;;;;;;;;;;5092293;28;20939;-61
2023/08/03 07:25:25;;;;;;;2.23;1.07;;;;;;;;;;5092425;28;20429;-61
2023/08/03 07:27:52;;;;;;;4.17;1.50;;;;;;;;;;5091766;28;20411;-61
2023/08/03 07:30:18;;;;;;;5.37;1.73;;;;;;;;;;5091818;28;20424;-61
2023/08/03 07:32:46;;;;;;;1.27;1.10;;;;;;;;;;5093045;28;20416;-61
2023/08/03 07:35:15;;;;;;;7.47;1.10;;;;;;;;;;5092677;28;20533;-60
2023/08/03 07:37:41;;;;;;;5.80;1.07;;;;;;;;;;5093017;28;20431;-61
2023/08/03 07:40:07;;;;;;;4.17;1.20;;;;;;;;;;5093173;28;20836;-60
2023/08/03 07:42:33;;;;;;;9.47;1.83;;;;;;;;;;5091089;28;20417;-60
2023/08/03 07:45:00;;;;;;;3.03;1.03;;;;;;;;;;5092914;28;20433;-61
2023/08/03 07:47:26;;;;;;;3.50;0.80;;;;;;;;;;5092921;28;20445;-60
2023/08/03 07:49:55;;;;;;;4.70;1.27;;;;;;;;;;5092762;28;20782;-60
2023/08/03 07:52:21;;;;;;;1.90;1.53;;;;;;;;;;5092947;28;20804;-60
2023/08/03 07:54:47;;;;;;;3.93;1.10;;;;;;;;;;5092764;28;20465;-61
2023/08/03 07:57:15;;;;;;;2.00;1.07;;;;;;;;;;5092570;28;20945;-60
2023/08/03 07:59:41;;;;;;;4.83;0.93;;;;;;;;;;5092685;28;20408;-59
2023/08/03 08:02:07;;;;;;;1.83;1.10;;;;;;;;;;5092651;28;20422;-60
2023/08/03 08:04:33;;;;;;;3.80;1.10;;;;;;;;;;5092758;28;20435;-60
2023/08/03 08:06:59;;;;;;;6.73;1.53;;;;;;;;;;5092955;28;20485;-60
2023/08/03 08:09:25;;;;;;;3.50;1.40;;;;;;;;;;5092851;28;20940;-60
2023/08/03 08:11:51;;;;;;;3.47;1.30;;;;;;;;;;5092388;28;20452;-60
2023/08/03 08:14:17;;;;;;;2.40;0.90;;;;;;;;;;5092425;28;20437;-60
2023/08/03 08:16:43;;;;;;;2.50;1.27;;;;;;;;;;5092688;28;20416;-60
2023/08/03 08:19:09;;;;;;;1.33;0.93;;;;;;;;;;5092651;28;20418;-60
2023/08/03 08:21:35;;;;;;;3.60;1.30;;;;;;;;;;5092384;28;20780;-60
2023/08/03 08:24:01;;;;;;;5.53;1.63;;;;;;;;;;5092761;28;20497;-60
2023/08/03 08:26:28;;;;;;;2.90;1.10;;;;;;;;;;5092718;28;20854;-60
2023/08/03 08:28:56;;;;;;;2.30;1.03;;;;;;;;;;5092773;28;20460;-60
2023/08/03 08:31:23;;;;;;;4.93;1.17;;;;;;;;;;5092200;28;20493;-60
2023/08/03 08:33:49;;;;;;;3.17;1.40;;;;;;;;;;5092751;28;20413;-60
2023/08/03 08:36:15;;;;;;;5.87;1.67;;;;;;;;;;5092516;28;20541;-60
2023/08/03 08:38:41;;;;;;;1.93;1.03;;;;;;;;;;5092807;28;20402;-60
2023/08/03 08:41:09;;;;;;;13.50;2.70;;;;;;;;;;5092382;28;20811;-60
2023/08/03 08:43:35;;;;;;;2.07;1.13;;;;;;;;;;5092677;28;21010;-60
2023/08/03 08:46:01;;;;;;;2.37;1.00;;;;;;;;;;5092630;28;20474;-60
2023/08/03 08:48:27;;;;;;;1.10;1.00;;;;;;;;;;5092306;28;20502;-60
2023/08/03 08:50:58;;;;;;;1.50;0.83;;;;;;;;;;5092670;28;20444;-61
2023/08/03 08:53:24;;;;;;;2.03;0.90;;;;;;;;;;5092574;28;20413;-60
2023/08/03 08:55:50;;;;;;;3.10;1.30;;;;;;;;;;5095877;28;20496;-60
2023/08/03 08:58:16;;;;;;;2.47;1.30;;;;;;;;;;5096647;28;20495;-61
2023/08/03 09:00:46;;;;;;;30.50;15.90;;;;;;;;;;5094958;28;20926;-60
2023/08/03 09:03:13;;;;;;;2.60;1.27;;;;;;;;;;5096446;28;20499;-60
2023/08/03 09:05:39;;;;;;;2.03;0.97;;;;;;;;;;5096455;28;20471;-60
2023/08/03 09:08:06;;;;;;;5.83;1.53;;;;;;;;;;5096423;28;20450;-60
2023/08/03 09:10:46;;;;;;;2.93;1.40;;;;;;;;;;5096173;28;20435;-60
2023/08/03 09:13:25;;;;;;;1.50;1.10;;;;;;;;;;5095033;28;20455;-60
2023/08/03 09:15:51;;;;;;;6.53;1.23;;;;;;;;;;5096435;28;20499;-59
2023/08/03 09:18:16;;;;;;;2.43;0.87;;;;;;;;;;5096323;28;20827;-59
2023/08/03 09:20:42;;;;;;;2.17;0.80;;;;;;;;;;5094853;28;20432;-59
2023/08/03 09:23:08;;;;;;;1.67;1.00;;;;;;;;;;5096047;28;20822;-59
2023/08/03 09:25:37;;;;;;;1.30;0.90;;;;;;;;;;5096326;28;20430;-59
2023/08/03 09:28:03;;;;;;;6.40;1.10;;;;;;;;;;5096193;28;20522;-59
2023/08/03 09:30:29;;;;;;;1.47;1.03;;;;;;;;;;5096090;28;20472;-60
2023/08/03 09:32:57;;;;;;;1.73;0.90;;;;;;;;;;5095863;28;20422;-60
2023/08/03 09:35:24;;;;;;;2.60;1.17;;;;;;;;;;5095750;28;20575;-60
2023/08/03 09:37:56;;;;;;;3.20;0.90;;;;;;;;;;5096488;28;20731;-60
2023/08/03 09:40:23;;;;;;;2.97;0.90;;;;;;;;;;5096301;28;20389;-60
2023/08/03 09:42:49;;;;;;;3.03;1.23;;;;;;;;;;5095755;28;20489;-61
2023/08/03 09:45:16;;;;;;;1.90;1.13;;;;;;;;;;5095967;28;20414;-60
2023/08/03 09:47:42;;;;;;;1.93;1.13;;;;;;;;;;5095835;28;20418;-59
2023/08/03 09:50:09;;;;;;;2.13;1.17;;;;;;;;;;5095857;28;20882;-61
2023/08/03 09:52:49;;;;;;;6.10;0.97;;;;;;;;;;5095776;28;20422;-60
2023/08/03 09:55:20;;;;;;;2.03;1.00;;;;;;;;;;5095789;28;20471;-60
2023/08/03 09:58:09;;;;;;;3.70;0.93;;;;;;;;;;5095511;28;20411;-60
2023/08/03 10:00:35;;;;;;;1.13;1.00;;;;;;;;;;5095399;28;20490;-60
2023/08/03 10:03:06;;;;;;;1.83;1.03;;;;;;;;;;5095448;28;20471;-60
2023/08/03 10:05:37;;;;;;;2.10;1.10;;;;;;;;;;5095192;28;20423;-61
2023/08/03 10:08:20;;;;;;;1.17;0.93;;;;;;;;;;5095668;28;20419;-61
2023/08/03 10:10:51;;;;;;;1.20;0.87;;;;;;;;;;5093871;28;20427;-61
2023/08/03 10:13:17;;;;;;;5.53;1.27;;;;;;;;;;5095292;28;20440;-61
2023/08/03 10:15:43;;;;;;;3.37;0.87;;;;;;;;;;5095090;28;20471;-61
2023/08/03 10:18:09;;;;;;;2.10;1.00;;;;;;;;;;5093971;28;20461;-57
2023/08/03 10:20:38;;;;;;;1.37;1.27;;;;;;;;;;5095422;28;20792;-57
2023/08/03 10:23:09;;;;;;;1.63;0.80;;;;;;;;;;5095586;28;20430;-55
2023/08/03 10:25:54;;;;;;;1.07;0.97;;;;;;;;;;5095326;28;20520;-56
2023/08/03 10:28:30;;;;;;;2.77;1.27;;;;;;;;;;5095482;28;20411;-56
2023/08/03 10:31:04;;;;;;;2.87;0.83;;;;;;;;;;5095136;28;20418;-55
2023/08/03 10:33:51;;;;;;;2.57;0.83;;;;;;;;;;5095734;28;20485;-57
2023/08/03 10:36:33;;;;;;;2.43;0.90;;;;;;;;;;5095015;28;20470;-56
2023/08/03 10:39:07;;;;;;;1.00;0.90;;;;;;;;;;5095155;28;20470;-57
2023/08/03 10:41:37;;;;;;;2.70;1.10;;;;;;;;;;5095088;28;20435;-55
2023/08/03 10:44:05;;;;;;;1.10;0.90;;;;;;;;;;5094618;28;20448;-57
2023/08/03 10:46:50;;;;;;;0.90;0.70;;;;;;;;;;5094617;28;20433;-55
2023/08/03 10:49:19;;;;;;;0.70;0.70;;;;;;;;;;5095032;28;20699;-57
2023/08/03 10:51:45;;;;;;;1.77;1.00;;;;;;;;;;5094381;28;20927;-56
2023/08/03 10:54:14;;;;;;;3.03;1.03;;;;;;;;;;5095459;28;20437;-55
2023/08/03 10:57:00;;;;;;;1.43;0.90;;;;;;;;;;5095670;28;20419;-55
2023/08/03 10:59:29;;;;;;;1.37;0.70;;;;;;;;;;5095210;28;20415;-56
2023/08/03 11:01:55;;;;;;;1.37;0.70;;;;;;;;;;5094706;28;20436;-55
2023/08/03 11:04:24;;;;;;;1.30;0.70;;;;;;;;;;5094498;28;20416;-57
2023/08/03 11:06:53;;;;;;;6.80;0.90;;;;;;;;;;5094268;28;20436;-57
2023/08/03 11:09:19;;;;;;;1.63;0.60;;;;;;;;;;5094273;28;20421;-57
2023/08/03 11:11:49;;;;;;;1.23;0.73;;;;;;;;;;5094085;28;20792;-57
2023/08/03 11:14:15;;;;;;;1.83;0.77;;;;;;;;;;5094220;28;20441;-57
2023/08/03 11:16:42;;;;;;;2.30;0.80;;;;;;;;;;5093627;28;20469;-55
2023/08/03 11:19:08;;;;;;;0.83;0.83;;;;;;;;;;5094231;28;20504;-58
2023/08/03 11:21:38;;;;;;;1.00;0.80;;;;;;;;;;5094088;28;20449;-58
2023/08/03 11:24:05;;;;;;;2.50;0.97;;;;;;;;;;5094092;28;20473;-58
2023/08/03 11:26:32;;;;;;;2.20;0.60;;;;;;;;;;5093970;28;20437;-57
2023/08/03 11:28:58;;;;;;;1.90;0.97;;;;;;;;;;5093880;28;20420;-58
2023/08/03 11:31:24;;;;;;;2.10;0.90;;;;;;;;;;5093963;28;20607;-57
2023/08/03 11:33:50;;;;;;;1.60;0.70;;;;;;;;;;5093868;28;20959;-58
2023/08/03 11:36:17;;;;;;;0.80;0.80;;;;;;;;;;5093584;28;20458;-57
2023/08/03 11:38:44;;;;;;;0.70;0.70;;;;;;;;;;5093790;28;20404;-57
2023/08/03 11:41:10;;;;;;;2.00;0.70;;;;;;;;;;5093704;28;20427;-57
2023/08/03 11:43:36;;;;;;;8.70;0.87;;;;;;;;;;5093769;28;20930;-58
2023/08/03 11:46:02;;;;;;;0.57;0.57;;;;;;;;;;5093632;28;20416;-56
2023/08/03 11:48:30;;;;;;;2.60;0.83;;;;;;;;;;5093559;28;20441;-58
2023/08/03 11:50:56;;;;;;;1.47;0.93;;;;;;;;;;5093493;28;20976;-55
2023/08/03 11:53:26;;;;;;;1.00;1.00;;;;;;;;;;5093465;28;20437;-56
2023/08/03 11:55:52;;;;;;;1.07;0.97;;;;;;;;;;5093542;28;20463;-58
2023/08/03 11:58:22;;;;;;;2.53;0.70;;;;;;;;;;5093387;28;20939;-57
2023/08/03 12:00:48;;;;;;;2.40;0.70;;;;;;;;;;5093671;28;20453;-57
2023/08/03 12:03:33;;;;;;;1.17;0.90;;;;;;;;;;5093238;28;20898;-58
2023/08/03 12:06:05;;;;;;;0.70;0.70;;;;;;;;;;5093160;28;20488;-58
2023/08/03 12:08:31;;;;;;;0.90;0.80;;;;;;;;;;5093133;28;20433;-58
2023/08/03 12:10:57;;;;;;;0.80;0.80;;;;;;;;;;5092899;28;20882;-58
2023/08/03 12:13:25;;;;;;;1.97;0.90;;;;;;;;;;5093012;28;20441;-58
2023/08/03 12:15:54;;;;;;;1.37;0.97;;;;;;;;;;5093017;28;20567;-58
2023/08/03 12:18:21;;;;;;;2.10;0.80;;;;;;;;;;5092990;28;20431;-58
2023/08/03 12:20:49;;;;;;;1.27;1.00;;;;;;;;;;5092956;28;20458;-57
2023/08/03 12:23:16;;;;;;;1.03;0.70;;;;;;;;;;5092866;28;20905;-58
2023/08/03 12:25:42;;;;;;;1.60;0.73;;;;;;;;;;5092979;28;20505;-58
2023/08/03 12:28:08;;;;;;;1.03;0.80;;;;;;;;;;5092493;28;20532;-58
2023/08/03 12:30:37;;;;;;;1.10;0.77;;;;;;;;;;5092402;28;20434;-56
2023/08/03 12:33:03;;;;;;;2.00;0.70;;;;;;;;;;5092709;28;20428;-57
2023/08/03 12:35:29;;;;;;;3.07;1.17;;;;;;;;;;5092687;28;20519;-58
2023/08/03 12:37:55;;;;;;;1.00;0.77;;;;;;;;;;5092730;28;20509;-58
2023/08/03 12:40:21;;;;;;;6.23;4.20;;;;;;;;;;5092704;28;20587;-58
2023/08/03 12:42:47;;;;;;;4.40;3.23;;;;;;;;;;5092713;28;20597;-58
2023/08/03 12:45:13;;;;;;;1.03;0.60;;;;;;;;;;5092514;28;20420;-58
2023/08/03 12:47:39;;;;;;;0.73;0.63;;;;;;;;;;5092460;28;20440;-58
2023/08/03 12:50:05;;;;;;;2.10;1.73;;;;;;;;;;5092652;28;20400;-58
2023/08/03 12:52:31;;;;;;;39.53;22.27;;;;;;;;;;5092562;28;20412;-58
2023/08/03 12:54:59;;;;;;;3.10;1.50;;;;;;;;;;5092478;28;20467;-58
2023/08/03 12:57:25;;;;;;;1.03;0.93;;;;;;;;;;5092462;28;20418;-57
2023/08/03 12:59:52;;;;;;;5.70;0.80;;;;;;;;;;5092668;28;20418;-56
2023/08/03 13:02:20;;;;;;;1.67;0.80;;;;;;;;;;5091653;28;20422;-56
2023/08/03 13:04:50;;;;;;;1.40;0.80;;;;;;;;;;5092634;28;20480;-57
2023/08/03 13:07:17;;;;;;;1.40;0.90;;;;;;;;;;5091880;28;20868;-57
2023/08/03 13:09:45;;;;;;;5.03;1.13;;;;;;;;;;5092897;28;20171;-55
2023/08/03 13:12:14;;;;;;;3.07;0.80;;;;;;;;;;5092507;28;20440;-56
2023/08/03 13:14:40;;;;;;;2.63;1.20;;;;;;;;;;5092492;28;20465;-56
2023/08/03 13:17:06;;;;;;;1.93;0.90;;;;;;;;;;5092595;28;20412;-57
2023/08/03 13:19:32;;;;;;;1.50;1.00;;;;;;;;;;5092346;28;20530;-56
2023/08/03 13:22:01;;;;;;;1.90;1.10;;;;;;;;;;5092412;28;20427;-57
2023/08/03 13:24:26;;;;;;;1.50;1.10;;;;;;;;;;5092365;28;20446;-57
2023/08/03 13:26:56;;;;;;;2.73;1.00;;;;;;;;;;5092424;28;20410;-56
2023/08/03 13:29:24;;;;;;;2.13;1.00;;;;;;;;;;5092012;28;20837;-56
2023/08/03 13:31:52;;;;;;;1.10;0.90;;;;;;;;;;5092369;28;20461;-55
2023/08/03 13:34:20;;;;;;;4.60;0.90;;;;;;;;;;5092208;28;20446;-58
2023/08/03 13:36:45;;;;;;;2.00;1.20;;;;;;;;;;5092573;28;20400;-56
2023/08/03 13:39:14;;;;;;;1.60;0.80;;;;;;;;;;5091821;28;20444;-58
2023/08/03 13:41:40;;;;;;;3.33;1.23;;;;;;;;;;5095097;28;20827;-58
2023/08/03 13:44:06;;;;;;;2.73;0.83;;;;;;;;;;5095759;28;20443;-57
2023/08/03 13:46:32;;;;;;;1.50;0.63;;;;;;;;;;5095638;28;20525;-56
2023/08/03 13:48:58;;;;;;;10.63;1.27;;;;;;;;;;5095781;28;20440;-56
2023/08/03 13:51:24;;;;;;;1.13;0.60;;;;;;;;;;5095883;28;20775;-58
2023/08/03 13:53:52;;;;;;;2.00;0.90;;;;;;;;;;5095855;28;20436;-57
2023/08/03 13:56:18;;;;;;;1.00;0.80;;;;;;;;;;5095631;28;20463;-57
2023/08/03 13:58:46;;;;;;;2.40;0.80;;;;;;;;;;5095621;28;20939;-58
2023/08/03 14:01:13;;;;;;;3.03;0.50;;;;;;;;;;5095342;28;20452;-58
2023/08/03 14:03:41;;;;;;;0.83;0.80;;;;;;;;;;5095456;28;20797;-57
2023/08/03 14:06:07;;;;;;;0.60;0.60;;;;;;;;;;5095416;28;20457;-58
2023/08/03 14:08:33;;;;;;;1.03;0.87;;;;;;;;;;5094168;28;20465;-58
2023/08/03 14:10:59;;;;;;;4.13;0.73;;;;;;;;;;5095365;28;20432;-58
2023/08/03 14:13:25;;;;;;;0.80;0.80;;;;;;;;;;5095446;28;20417;-58
2023/08/03 14:15:51;;;;;;;1.07;0.60;;;;;;;;;;5095529;28;20452;-57
2023/08/03 14:18:17;;;;;;;0.60;0.60;;;;;;;;;;5095479;28;20492;-58
2023/08/03 14:20:43;;;;;;;1.60;0.90;;;;;;;;;;5095337;28;20968;-57
2023/08/03 14:23:12;;;;;;;1.30;0.70;;;;;;;;;;5095603;28;20822;-58
2023/08/03 14:25:38;;;;;;;1.43;0.93;;;;;;;;;;5095149;28;20423;-58
2023/08/03 14:28:07;;;;;;;1.00;0.77;;;;;;;;;;5095269;28;20421;-57
2023/08/03 14:30:33;;;;;;;1.23;0.77;;;;;;;;;;5095041;28;20439;-58
2023/08/03 14:33:02;;;;;;;0.70;0.70;;;;;;;;;;5095104;28;20425;-57
2023/08/03 14:35:30;;;;;;;0.77;0.60;;;;;;;;;;5094934;28;20488;-58
2023/08/03 14:37:56;;;;;;;2.30;0.70;;;;;;;;;;5094969;28;20420;-57
2023/08/03 14:40:23;;;;;;;1.73;0.80;;;;;;;;;;5094920;28;20437;-58
2023/08/03 14:42:51;;;;;;;0.90;0.80;;;;;;;;;;5094793;28;20414;-58